sensor_id;sensor_type;location;lat;lon;timestamp;pressure;altitude;pressure_sealevel;temperature;humidity
11676;BME280;5894;42.768;23.404;2022-07-23T00:01:07;95860.38;;;22.59;72.82
11676;BME280;5894;42.768;23.404;2022-07-23T00:03:34;95864.25;;;22.61;73.32
11676;BME280;5894;42.768;23.404;2022-07-23T00:06:00;95864.94;;;22.55;73.71
11676;BME280;5894;42.768;23.404;2022-07-23T00:08:27;95874.16;;;22.54;74.60
11676;BME280;5894;42.768;23.404;2022-07-23T00:10:54;95872.63;;;22.53;74.69
11676;BME280;5894;42.768;23.404;2022-07-23T00:13:22;95871.09;;;22.52;75.32
11676;BME280;5894;42.768;23.404;2022-07-23T00:15:49;95870.63;;;22.46;75.33
11676;BME280;5894;42.768;23.404;2022-07-23T00:18:16;95875.94;;;22.39;74.70
11676;BME280;5894;42.768;23.404;2022-07-23T00:20:43;95872.13;;;22.40;73.30
11676;BME280;5894;42.768;23.404;2022-07-23T00:23:10;95870.50;;;22.32;73.22
11676;BME280;5894;42.768;23.404;2022-07-23T00:25:36;95868.91;;;22.27;73.85
11676;BME280;5894;42.768;23.404;2022-07-23T00:28:04;95871.59;;;22.27;74.34
11676;BME280;5894;42.768;23.404;2022-07-23T00:30:32;95873.47;;;22.23;75.00
11676;BME280;5894;42.768;23.404;2022-07-23T00:33:00;95827.06;;;21.89;75.73
11676;BME280;5894;42.768;23.404;2022-07-23T00:35:30;95878.38;;;22.14;75.50
11676;BME280;5894;42.768;23.404;2022-07-23T00:37:58;95870.19;;;22.04;75.22
11676;BME280;5894;42.768;23.404;2022-07-23T00:40:27;95881.41;;;22.13;74.79
11676;BME280;5894;42.768;23.404;2022-07-23T00:42:54;95878.34;;;22.11;74.99
11676;BME280;5894;42.768;23.404;2022-07-23T00:45:21;95868.28;;;22.04;76.07
11676;BME280;5894;42.768;23.404;2022-07-23T00:47:50;95875.16;;;22.02;77.29
11676;BME280;5894;42.768;23.404;2022-07-23T00:50:17;95875.91;;;21.99;77.82
11676;BME280;5894;42.768;23.404;2022-07-23T00:52:44;95876.25;;;21.97;77.88
11676;BME280;5894;42.768;23.404;2022-07-23T00:55:12;95865.84;;;21.95;78.64
11676;BME280;5894;42.768;23.404;2022-07-23T00:57:40;95875.81;;;21.95;79.16
11676;BME280;5894;42.768;23.404;2022-07-23T01:00:10;95878.47;;;21.91;78.91
11676;BME280;5894;42.768;23.404;2022-07-23T01:02:38;95875.41;;;21.89;79.02
11676;BME280;5894;42.768;23.404;2022-07-23T01:05:07;95875.41;;;21.89;79.69
11676;BME280;5894;42.768;23.404;2022-07-23T01:07:34;95877.97;;;21.82;80.42
11676;BME280;5894;42.768;23.404;2022-07-23T01:10:02;95863.25;;;21.69;81.33
11676;BME280;5894;42.768;23.404;2022-07-23T01:12:29;95882.94;;;21.80;81.96
11676;BME280;5894;42.768;23.404;2022-07-23T01:14:57;95879.09;;;21.78;82.14
11676;BME280;5894;42.768;23.404;2022-07-23T01:17:25;95851.69;;;21.65;82.02
11676;BME280;5894;42.768;23.404;2022-07-23T01:19:52;95882.91;;;21.77;81.26
11676;BME280;5894;42.768;23.404;2022-07-23T01:22:21;95813.72;;;21.33;79.95
11676;BME280;5894;42.768;23.404;2022-07-23T01:24:49;95873.66;;;21.74;77.86
11676;BME280;5894;42.768;23.404;2022-07-23T01:27:21;95875.53;;;21.70;75.88
11676;BME280;5894;42.768;23.404;2022-07-23T01:29:53;95876.28;;;21.67;74.49
11676;BME280;5894;42.768;23.404;2022-07-23T01:32:21;95872.41;;;21.65;73.89
11676;BME280;5894;42.768;23.404;2022-07-23T01:34:48;95873.88;;;21.58;74.37
11676;BME280;5894;42.768;23.404;2022-07-23T01:37:15;95873.75;;;21.51;74.81
11676;BME280;5894;42.768;23.404;2022-07-23T01:39:43;95773.09;;;20.78;75.92
11676;BME280;5894;42.768;23.404;2022-07-23T01:42:12;95868.66;;;21.43;76.46
11676;BME280;5894;42.768;23.404;2022-07-23T01:44:39;95873.19;;;21.39;77.75
11676;BME280;5894;42.768;23.404;2022-07-23T01:47:09;95872.75;;;21.33;79.29
11676;BME280;5894;42.768;23.404;2022-07-23T01:49:35;95859.25;;;21.26;78.96
11676;BME280;5894;42.768;23.404;2022-07-23T01:52:23;95868.50;;;21.32;79.84
11676;BME280;5894;42.768;23.404;2022-07-23T01:54:50;95866.19;;;21.31;79.41
11676;BME280;5894;42.768;23.404;2022-07-23T01:57:18;95869.22;;;21.29;79.87
11676;BME280;5894;42.768;23.404;2022-07-23T01:59:45;95871.03;;;21.21;80.40
11676;BME280;5894;42.768;23.404;2022-07-23T02:02:14;95868.00;;;21.23;80.27
11676;BME280;5894;42.768;23.404;2022-07-23T02:04:41;95871.47;;;21.23;80.41
11676;BME280;5894;42.768;23.404;2022-07-23T02:07:08;95842.81;;;21.05;80.97
11676;BME280;5894;42.768;23.404;2022-07-23T02:09:35;95878.56;;;21.12;83.24
11676;BME280;5894;42.768;23.404;2022-07-23T02:12:02;95875.09;;;21.12;84.13
11676;BME280;5894;42.768;23.404;2022-07-23T02:14:30;95875.50;;;21.14;83.47
11676;BME280;5894;42.768;23.404;2022-07-23T02:16:57;95869.72;;;21.12;82.72
11676;BME280;5894;42.768;23.404;2022-07-23T02:19:24;95872.00;;;21.10;83.03
11676;BME280;5894;42.768;23.404;2022-07-23T02:21:51;95873.88;;;21.06;83.64
11676;BME280;5894;42.768;23.404;2022-07-23T02:24:19;95869.22;;;21.03;84.33
11676;BME280;5894;42.768;23.404;2022-07-23T02:26:46;95873.38;;;21.00;84.75
11676;BME280;5894;42.768;23.404;2022-07-23T02:29:14;95869.56;;;21.01;85.05
11676;BME280;5894;42.768;23.404;2022-07-23T02:31:42;95877.56;;;20.98;86.26
11676;BME280;5894;42.768;23.404;2022-07-23T02:34:09;95880.13;;;20.91;87.45
11676;BME280;5894;42.768;23.404;2022-07-23T02:36:37;95877.81;;;20.89;86.37
11676;BME280;5894;42.768;23.404;2022-07-23T02:39:07;95876.50;;;20.79;83.17
11676;BME280;5894;42.768;23.404;2022-07-23T02:41:35;95891.78;;;20.75;81.45
11676;BME280;5894;42.768;23.404;2022-07-23T02:44:02;95887.13;;;20.72;80.48
11676;BME280;5894;42.768;23.404;2022-07-23T02:46:29;95892.00;;;20.67;80.68
11676;BME280;5894;42.768;23.404;2022-07-23T02:48:58;95875.19;;;20.47;80.80
11676;BME280;5894;42.768;23.404;2022-07-23T02:51:25;95820.00;;;20.20;80.73
11676;BME280;5894;42.768;23.404;2022-07-23T02:53:57;95884.50;;;20.53;81.60
11676;BME280;5894;42.768;23.404;2022-07-23T02:56:24;95886.56;;;20.40;82.53
11676;BME280;5894;42.768;23.404;2022-07-23T02:58:51;95893.00;;;20.36;82.96
11676;BME280;5894;42.768;23.404;2022-07-23T03:01:18;95903.19;;;20.30;83.59
11676;BME280;5894;42.768;23.404;2022-07-23T03:03:45;95908.56;;;20.30;84.28
11676;BME280;5894;42.768;23.404;2022-07-23T03:06:14;95903.97;;;20.31;85.00
11676;BME280;5894;42.768;23.404;2022-07-23T03:08:40;95878.00;;;20.12;84.93
11676;BME280;5894;42.768;23.404;2022-07-23T03:11:07;95912.09;;;20.34;84.82
11676;BME280;5894;42.768;23.404;2022-07-23T03:13:37;95912.88;;;20.35;84.91
11676;BME280;5894;42.768;23.404;2022-07-23T03:16:05;95914.00;;;20.34;85.59
11676;BME280;5894;42.768;23.404;2022-07-23T03:18:35;95923.94;;;20.33;85.67
11676;BME280;5894;42.768;23.404;2022-07-23T03:21:03;95915.88;;;20.33;85.77
11676;BME280;5894;42.768;23.404;2022-07-23T03:23:31;95917.44;;;20.34;85.68
11676;BME280;5894;42.768;23.404;2022-07-23T03:25:58;95919.34;;;20.34;86.19
11676;BME280;5894;42.768;23.404;2022-07-23T03:28:25;95926.06;;;20.24;87.64
11676;BME280;5894;42.768;23.404;2022-07-23T03:30:52;95923.22;;;20.17;90.15
11676;BME280;5894;42.768;23.404;2022-07-23T03:33:20;95922.88;;;20.19;91.34
11676;BME280;5894;42.768;23.404;2022-07-23T03:35:47;95925.91;;;20.17;92.49
11676;BME280;5894;42.768;23.404;2022-07-23T03:38:27;95920.53;;;20.17;93.41
11676;BME280;5894;42.768;23.404;2022-07-23T03:40:55;95920.53;;;20.17;94.55
11676;BME280;5894;42.768;23.404;2022-07-23T03:43:22;95927.94;;;20.04;96.16
11676;BME280;5894;42.768;23.404;2022-07-23T03:45:49;95926.03;;;20.05;96.15
11676;BME280;5894;42.768;23.404;2022-07-23T03:48:16;95927.94;;;20.04;95.03
11676;BME280;5894;42.768;23.404;2022-07-23T03:50:44;95927.53;;;20.02;93.33
11676;BME280;5894;42.768;23.404;2022-07-23T03:53:11;95924.91;;;20.06;93.07
11676;BME280;5894;42.768;23.404;2022-07-23T04:03:03;95920.41;;;19.91;90.52
11676;BME280;5894;42.768;23.404;2022-07-23T04:05:32;95934.63;;;19.95;90.99
11676;BME280;5894;42.768;23.404;2022-07-23T04:08:08;95935.97;;;19.85;92.25
11676;BME280;5894;42.768;23.404;2022-07-23T04:10:38;95931.34;;;19.82;92.56
11676;BME280;5894;42.768;23.404;2022-07-23T04:13:07;95930.41;;;19.94;92.67
11676;BME280;5894;42.768;23.404;2022-07-23T04:15:34;95941.53;;;19.96;92.16
11676;BME280;5894;42.768;23.404;2022-07-23T04:18:05;95937.69;;;19.93;92.21
11676;BME280;5894;42.768;23.404;2022-07-23T04:20:43;95930.06;;;19.95;92.03
11676;BME280;5894;42.768;23.404;2022-07-23T04:23:10;95945.41;;;19.98;92.65
11676;BME280;5894;42.768;23.404;2022-07-23T04:25:38;95900.97;;;19.74;92.83
11676;BME280;5894;42.768;23.404;2022-07-23T04:28:05;95945.16;;;20.03;93.46
11676;BME280;5894;42.768;23.404;2022-07-23T04:30:32;95946.69;;;20.04;93.35
11676;BME280;5894;42.768;23.404;2022-07-23T04:32:59;95943.75;;;20.09;92.98
11676;BME280;5894;42.768;23.404;2022-07-23T04:35:31;95949.56;;;20.15;92.84
11676;BME280;5894;42.768;23.404;2022-07-23T04:38:08;95944.28;;;20.19;92.26
11676;BME280;5894;42.768;23.404;2022-07-23T04:40:35;95923.31;;;20.01;92.07
11676;BME280;5894;42.768;23.404;2022-07-23T04:43:02;95950.91;;;20.25;92.02
11676;BME280;5894;42.768;23.404;2022-07-23T04:45:33;95934.91;;;20.28;91.54
11676;BME280;5894;42.768;23.404;2022-07-23T04:47:59;95925.97;;;20.21;90.78
11676;BME280;5894;42.768;23.404;2022-07-23T04:50:27;95953.13;;;20.38;90.29
11676;BME280;5894;42.768;23.404;2022-07-23T04:52:58;95962.00;;;20.42;90.09
11676;BME280;5894;42.768;23.404;2022-07-23T04:55:25;95951.72;;;20.44;89.92
11676;BME280;5894;42.768;23.404;2022-07-23T04:57:52;95959.78;;;20.48;89.56
11676;BME280;5894;42.768;23.404;2022-07-23T05:00:19;95954.16;;;20.53;89.63
11676;BME280;5894;42.768;23.404;2022-07-23T05:02:46;95953.09;;;20.58;89.25
11676;BME280;5894;42.768;23.404;2022-07-23T05:05:13;95954.72;;;20.62;89.43
11676;BME280;5894;42.768;23.404;2022-07-23T05:07:42;95926.94;;;20.51;90.25
11676;BME280;5894;42.768;23.404;2022-07-23T05:10:10;95962.63;;;20.78;89.62
11676;BME280;5894;42.768;23.404;2022-07-23T05:12:37;95944.38;;;20.83;89.16
11676;BME280;5894;42.768;23.404;2022-07-23T05:15:05;95953.78;;;20.97;89.03
11676;BME280;5894;42.768;23.404;2022-07-23T05:17:31;95955.91;;;21.10;88.54
11676;BME280;5894;42.768;23.404;2022-07-23T05:20:00;95945.72;;;21.19;88.10
11676;BME280;5894;42.768;23.404;2022-07-23T05:22:28;95948.69;;;21.37;87.19
11676;BME280;5894;42.768;23.404;2022-07-23T05:24:55;95955.91;;;21.59;85.53
11676;BME280;5894;42.768;23.404;2022-07-23T05:27:24;95949.25;;;21.76;84.74
11676;BME280;5894;42.768;23.404;2022-07-23T05:29:51;95958.56;;;21.86;84.51
11676;BME280;5894;42.768;23.404;2022-07-23T05:32:17;95918.56;;;21.77;84.25
11676;BME280;5894;42.768;23.404;2022-07-23T05:34:53;95961.00;;;22.24;83.09
11676;BME280;5894;42.768;23.404;2022-07-23T05:37:20;95968.44;;;22.38;82.08
11676;BME280;5894;42.768;23.404;2022-07-23T05:39:47;95973.28;;;22.59;79.16
11676;BME280;5894;42.768;23.404;2022-07-23T05:42:14;95967.25;;;22.69;77.70
11676;BME280;5894;42.768;23.404;2022-07-23T05:44:43;95940.69;;;22.64;76.78
11676;BME280;5894;42.768;23.404;2022-07-23T05:47:09;95938.53;;;22.77;76.63
11676;BME280;5894;42.768;23.404;2022-07-23T05:49:37;95964.53;;;23.06;74.88
11676;BME280;5894;42.768;23.404;2022-07-23T05:52:22;95967.66;;;23.12;74.02
11676;BME280;5894;42.768;23.404;2022-07-23T05:55:12;95965.44;;;23.21;73.03
11676;BME280;5894;42.768;23.404;2022-07-23T05:57:40;95963.97;;;23.30;72.43
11676;BME280;5894;42.768;23.404;2022-07-23T06:00:10;95968.69;;;23.44;71.94
11676;BME280;5894;42.768;23.404;2022-07-23T06:02:41;95938.63;;;23.38;71.64
11676;BME280;5894;42.768;23.404;2022-07-23T06:05:10;95961.88;;;23.61;71.28
11676;BME280;5894;42.768;23.404;2022-07-23T06:07:38;95964.66;;;23.71;71.01
11676;BME280;5894;42.768;23.404;2022-07-23T06:10:06;95962.41;;;23.84;70.53
11676;BME280;5894;42.768;23.404;2022-07-23T06:12:33;95960.97;;;23.97;71.31
11676;BME280;5894;42.768;23.404;2022-07-23T06:15:00;95961.38;;;24.06;68.08
11676;BME280;5894;42.768;23.404;2022-07-23T06:17:29;95919.00;;;24.00;65.38
11676;BME280;5894;42.768;23.404;2022-07-23T06:19:56;95956.13;;;24.35;66.09
11676;BME280;5894;42.768;23.404;2022-07-23T06:22:23;95958.44;;;24.43;65.79
11676;BME280;5894;42.768;23.404;2022-07-23T06:24:50;95958.47;;;24.54;65.26
11676;BME280;5894;42.768;23.404;2022-07-23T06:27:19;95951.19;;;24.58;65.15
11676;BME280;5894;42.768;23.404;2022-07-23T06:29:46;95951.22;;;24.69;63.81
11676;BME280;5894;42.768;23.404;2022-07-23T06:32:13;95946.22;;;24.71;63.77
11676;BME280;5894;42.768;23.404;2022-07-23T06:34:41;95945.41;;;24.74;64.18
11676;BME280;5894;42.768;23.404;2022-07-23T06:37:08;95909.59;;;24.59;65.00
11676;BME280;5894;42.768;23.404;2022-07-23T06:39:34;95950.84;;;24.84;65.15
11676;BME280;5894;42.768;23.404;2022-07-23T06:42:03;95948.16;;;24.92;65.34
11676;BME280;5894;42.768;23.404;2022-07-23T06:44:38;95917.72;;;24.80;65.22
11676;BME280;5894;42.768;23.404;2022-07-23T06:47:07;95939.34;;;25.12;65.02
11676;BME280;5894;42.768;23.404;2022-07-23T06:49:35;95929.69;;;25.18;64.81
11676;BME280;5894;42.768;23.404;2022-07-23T06:52:03;95940.47;;;25.36;65.12
11676;BME280;5894;42.768;23.404;2022-07-23T06:54:32;95937.00;;;25.43;65.36
11676;BME280;5894;42.768;23.404;2022-07-23T06:56:59;95941.59;;;25.56;64.99
11676;BME280;5894;42.768;23.404;2022-07-23T06:59:27;95935.44;;;25.70;64.98
11676;BME280;5894;42.768;23.404;2022-07-23T07:01:54;95935.00;;;25.75;65.11
11676;BME280;5894;42.768;23.404;2022-07-23T07:04:22;95936.91;;;25.92;64.84
11676;BME280;5894;42.768;23.404;2022-07-23T07:06:49;95937.25;;;26.02;62.39
11676;BME280;5894;42.768;23.404;2022-07-23T07:09:17;95929.88;;;26.13;63.75
11676;BME280;5894;42.768;23.404;2022-07-23T07:11:44;95932.13;;;26.32;63.37
11676;BME280;5894;42.768;23.404;2022-07-23T07:14:11;95926.66;;;26.46;62.31
11676;BME280;5894;42.768;23.404;2022-07-23T07:16:38;95925.78;;;26.60;60.94
11676;BME280;5894;42.768;23.404;2022-07-23T07:19:04;95921.41;;;26.80;59.07
11676;BME280;5894;42.768;23.404;2022-07-23T07:21:31;95934.81;;;27.01;56.75
11676;BME280;5894;42.768;23.404;2022-07-23T07:23:58;95919.66;;;27.11;54.78
11676;BME280;5894;42.768;23.404;2022-07-23T07:26:26;95920.22;;;27.36;53.87
11676;BME280;5894;42.768;23.404;2022-07-23T07:28:53;95918.06;;;27.62;53.76
11676;BME280;5894;42.768;23.404;2022-07-23T07:31:20;95915.53;;;27.82;54.26
11676;BME280;5894;42.768;23.404;2022-07-23T07:33:47;95915.31;;;28.03;53.14
11676;BME280;5894;42.768;23.404;2022-07-23T07:36:14;95916.16;;;28.27;52.15
11676;BME280;5894;42.768;23.404;2022-07-23T07:38:40;95914.31;;;28.51;50.17
11676;BME280;5894;42.768;23.404;2022-07-23T07:41:07;95912.75;;;28.80;49.35
11676;BME280;5894;42.768;23.404;2022-07-23T07:43:36;95854.75;;;28.67;47.55
11676;BME280;5894;42.768;23.404;2022-07-23T07:46:04;95885.22;;;29.05;47.18
11676;BME280;5894;42.768;23.404;2022-07-23T07:48:32;95903.75;;;29.56;46.02
11676;BME280;5894;42.768;23.404;2022-07-23T07:50:59;95871.75;;;29.64;46.13
11676;BME280;5894;42.768;23.404;2022-07-23T07:53:25;95907.00;;;30.11;44.48
11676;BME280;5894;42.768;23.404;2022-07-23T07:55:52;95905.13;;;30.44;44.84
11676;BME280;5894;42.768;23.404;2022-07-23T07:58:19;95893.97;;;30.74;44.76
11676;BME280;5894;42.768;23.404;2022-07-23T08:00:47;95890.84;;;31.08;43.86
11676;BME280;5894;42.768;23.404;2022-07-23T08:03:14;95898.56;;;31.42;43.19
11676;BME280;5894;42.768;23.404;2022-07-23T08:05:41;95897.94;;;31.51;40.88
11676;BME280;5894;42.768;23.404;2022-07-23T08:08:07;95902.44;;;31.73;41.67
11676;BME280;5894;42.768;23.404;2022-07-23T08:10:40;95897.25;;;31.92;38.96
11676;BME280;5894;42.768;23.404;2022-07-23T08:13:07;95893.38;;;32.05;38.26
11676;BME280;5894;42.768;23.404;2022-07-23T08:15:34;95899.97;;;32.21;39.29
11676;BME280;5894;42.768;23.404;2022-07-23T08:18:03;95890.84;;;32.53;39.33
11676;BME280;5894;42.768;23.404;2022-07-23T08:20:30;95889.34;;;32.77;37.72
11676;BME280;5894;42.768;23.404;2022-07-23T08:22:58;95895.44;;;32.94;36.46
11676;BME280;5894;42.768;23.404;2022-07-23T08:25:26;95889.28;;;33.15;36.49
11676;BME280;5894;42.768;23.404;2022-07-23T08:27:54;95884.66;;;33.37;36.86
11676;BME280;5894;42.768;23.404;2022-07-23T08:30:21;95880.81;;;33.69;37.00
11676;BME280;5894;42.768;23.404;2022-07-23T08:32:54;95873.47;;;34.01;36.63
11676;BME280;5894;42.768;23.404;2022-07-23T08:35:27;95881.78;;;34.19;34.82
11676;BME280;5894;42.768;23.404;2022-07-23T08:37:55;95879.38;;;34.52;34.87
11676;BME280;5894;42.768;23.404;2022-07-23T08:40:23;95877.38;;;34.83;34.39
11676;BME280;5894;42.768;23.404;2022-07-23T08:42:52;95877.28;;;35.05;34.03
11676;BME280;5894;42.768;23.404;2022-07-23T08:45:20;95880.72;;;35.27;34.63
11676;BME280;5894;42.768;23.404;2022-07-23T08:47:49;95865.47;;;35.36;34.60
11676;BME280;5894;42.768;23.404;2022-07-23T08:50:17;95873.09;;;35.50;34.42
11676;BME280;5894;42.768;23.404;2022-07-23T08:52:45;95867.75;;;35.55;34.33
11676;BME280;5894;42.768;23.404;2022-07-23T08:55:13;95865.63;;;35.59;34.67
11676;BME280;5894;42.768;23.404;2022-07-23T08:57:40;95833.34;;;35.36;34.99
11676;BME280;5894;42.768;23.404;2022-07-23T09:00:08;95863.34;;;35.49;33.93
11676;BME280;5894;42.768;23.404;2022-07-23T09:02:39;95858.75;;;35.18;33.34
11676;BME280;5894;42.768;23.404;2022-07-23T09:05:07;95853.41;;;35.15;33.45
11676;BME280;5894;42.768;23.404;2022-07-23T09:07:35;95857.53;;;35.19;33.31
11676;BME280;5894;42.768;23.404;2022-07-23T09:10:09;95844.22;;;34.90;33.85
11676;BME280;5894;42.768;23.404;2022-07-23T09:12:37;95847.25;;;34.92;33.94
11676;BME280;5894;42.768;23.404;2022-07-23T09:15:05;95847.41;;;34.89;33.79
11676;BME280;5894;42.768;23.404;2022-07-23T09:17:39;95848.75;;;34.75;33.64
11676;BME280;5894;42.768;23.404;2022-07-23T09:20:08;95854.00;;;34.60;34.96
11676;BME280;5894;42.768;23.404;2022-07-23T09:22:35;95833.56;;;34.43;34.37
11676;BME280;5894;42.768;23.404;2022-07-23T09:25:10;95848.00;;;34.44;34.32
11676;BME280;5894;42.768;23.404;2022-07-23T09:27:52;95844.31;;;34.38;34.79
11676;BME280;5894;42.768;23.404;2022-07-23T09:30:20;95844.91;;;34.33;35.21
11676;BME280;5894;42.768;23.404;2022-07-23T09:33:07;95839.81;;;34.22;35.19
11676;BME280;5894;42.768;23.404;2022-07-23T09:35:46;95839.81;;;34.22;35.29
11676;BME280;5894;42.768;23.404;2022-07-23T09:38:14;95837.97;;;34.19;35.48
11676;BME280;5894;42.768;23.404;2022-07-23T09:40:43;95830.59;;;34.07;34.10
11676;BME280;5894;42.768;23.404;2022-07-23T09:43:10;95823.44;;;34.00;32.74
11676;BME280;5894;42.768;23.404;2022-07-23T09:45:37;95820.97;;;33.93;33.28
11676;BME280;5894;42.768;23.404;2022-07-23T09:48:12;95817.72;;;33.85;34.73
11676;BME280;5894;42.768;23.404;2022-07-23T09:50:40;95820.66;;;33.69;32.91
11676;BME280;5894;42.768;23.404;2022-07-23T09:53:07;95814.91;;;33.54;32.63
11676;BME280;5894;42.768;23.404;2022-07-23T09:55:36;95789.41;;;33.36;33.60
11676;BME280;5894;42.768;23.404;2022-07-23T09:58:05;95805.66;;;33.52;33.75
11676;BME280;5894;42.768;23.404;2022-07-23T10:00:34;95808.00;;;33.41;33.29
11676;BME280;5894;42.768;23.404;2022-07-23T10:03:03;95802.47;;;33.32;33.30
11676;BME280;5894;42.768;23.404;2022-07-23T10:05:51;95801.50;;;33.26;33.34
11676;BME280;5894;42.768;23.404;2022-07-23T10:08:28;95793.78;;;33.11;32.82
11676;BME280;5894;42.768;23.404;2022-07-23T10:11:14;95791.66;;;33.15;32.42
11676;BME280;5894;42.768;23.404;2022-07-23T10:14:22;95789.63;;;33.07;34.21
11676;BME280;5894;42.768;23.404;2022-07-23T10:16:56;95787.84;;;33.13;33.83
11676;BME280;5894;42.768;23.404;2022-07-23T10:19:23;95784.25;;;33.03;32.89
11676;BME280;5894;42.768;23.404;2022-07-23T10:21:53;95781.34;;;32.98;33.15
11676;BME280;5894;42.768;23.404;2022-07-23T10:24:30;95781.78;;;32.96;32.73
11676;BME280;5894;42.768;23.404;2022-07-23T10:27:14;95760.41;;;32.82;32.09
11676;BME280;5894;42.768;23.404;2022-07-23T10:29:52;95769.75;;;32.94;31.57
11676;BME280;5894;42.768;23.404;2022-07-23T10:32:34;95773.25;;;32.94;32.00
11676;BME280;5894;42.768;23.404;2022-07-23T10:35:12;95768.69;;;32.91;32.29
11676;BME280;5894;42.768;23.404;2022-07-23T10:37:45;95774.69;;;32.99;31.93
11676;BME280;5894;42.768;23.404;2022-07-23T10:40:15;95767.56;;;33.01;31.63
11676;BME280;5894;42.768;23.404;2022-07-23T10:42:43;95763.72;;;33.11;31.25
11676;BME280;5894;42.768;23.404;2022-07-23T10:45:25;95757.88;;;33.22;30.10
11676;BME280;5894;42.768;23.404;2022-07-23T10:47:53;95755.47;;;33.24;30.72
11676;BME280;5894;42.768;23.404;2022-07-23T10:50:22;95748.03;;;33.25;30.38
11676;BME280;5894;42.768;23.404;2022-07-23T10:53:09;95750.53;;;33.32;30.07
11676;BME280;5894;42.768;23.404;2022-07-23T10:55:43;95746.88;;;33.35;30.58
11676;BME280;5894;42.768;23.404;2022-07-23T10:58:11;95739.78;;;33.37;30.97
11676;BME280;5894;42.768;23.404;2022-07-23T11:00:44;95741.63;;;33.40;30.61
11676;BME280;5894;42.768;23.404;2022-07-23T11:03:31;95738.63;;;33.47;30.70
11676;BME280;5894;42.768;23.404;2022-07-23T11:06:01;95715.66;;;33.45;30.14
11676;BME280;5894;42.768;23.404;2022-07-23T11:08:28;95726.53;;;33.58;30.57
11676;BME280;5894;42.768;23.404;2022-07-23T11:11:07;95720.63;;;33.59;30.97
11676;BME280;5894;42.768;23.404;2022-07-23T11:13:46;95724.91;;;33.69;31.58
11676;BME280;5894;42.768;23.404;2022-07-23T11:16:20;95717.53;;;33.79;30.84
11676;BME280;5894;42.768;23.404;2022-07-23T11:21:47;95706.50;;;33.92;30.74
11676;BME280;5894;42.768;23.404;2022-07-23T11:24:20;95705.31;;;33.93;31.07
11676;BME280;5894;42.768;23.404;2022-07-23T11:27:01;95708.66;;;33.97;31.10
11676;BME280;5894;42.768;23.404;2022-07-23T11:29:44;95709.34;;;34.19;29.25
11676;BME280;5894;42.768;23.404;2022-07-23T11:32:24;95707.09;;;34.27;29.37
11676;BME280;5894;42.768;23.404;2022-07-23T11:34:53;95707.28;;;34.32;27.83
11676;BME280;5894;42.768;23.404;2022-07-23T11:37:35;95699.38;;;34.43;29.30
11676;BME280;5894;42.768;23.404;2022-07-23T11:40:06;95701.53;;;34.57;28.98
11676;BME280;5894;42.768;23.404;2022-07-23T11:42:34;95692.25;;;34.73;28.34
11676;BME280;5894;42.768;23.404;2022-07-23T11:45:03;95698.69;;;34.88;27.99
11676;BME280;5894;42.768;23.404;2022-07-23T11:47:32;95662.03;;;34.77;26.76
11676;BME280;5894;42.768;23.404;2022-07-23T11:50:00;95696.53;;;35.11;27.93
11676;BME280;5894;42.768;23.404;2022-07-23T11:52:30;95697.13;;;35.24;27.23
11676;BME280;5894;42.768;23.404;2022-07-23T11:54:59;95686.59;;;35.41;27.27
11676;BME280;5894;42.768;23.404;2022-07-23T11:57:27;95686.59;;;35.59;25.39
11676;BME280;5894;42.768;23.404;2022-07-23T11:59:56;95691.13;;;35.62;26.30
11676;BME280;5894;42.768;23.404;2022-07-23T12:02:24;95656.44;;;35.50;25.79
11676;BME280;5894;42.768;23.404;2022-07-23T12:04:53;95676.16;;;35.81;25.91
11676;BME280;5894;42.768;23.404;2022-07-23T12:07:25;95679.97;;;35.75;24.35
11676;BME280;5894;42.768;23.404;2022-07-23T12:09:52;95678.91;;;35.81;26.43
11676;BME280;5894;42.768;23.404;2022-07-23T12:12:19;95681.16;;;36.16;26.00
11676;BME280;5894;42.768;23.404;2022-07-23T12:14:50;95677.75;;;36.30;22.37
11676;BME280;5894;42.768;23.404;2022-07-23T12:17:17;95652.19;;;36.15;22.94
11676;BME280;5894;42.768;23.404;2022-07-23T12:19:45;95672.50;;;36.65;25.15
11676;BME280;5894;42.768;23.404;2022-07-23T12:22:14;95669.63;;;36.98;25.35
11676;BME280;5894;42.768;23.404;2022-07-23T12:24:57;95656.13;;;37.24;24.24
11676;BME280;5894;42.768;23.404;2022-07-23T12:27:25;95660.97;;;37.58;22.24
11676;BME280;5894;42.768;23.404;2022-07-23T12:29:52;95664.00;;;37.75;23.39
11676;BME280;5894;42.768;23.404;2022-07-23T12:32:21;95660.19;;;38.22;21.87
11676;BME280;5894;42.768;23.404;2022-07-23T12:34:50;95660.09;;;38.51;22.39
11676;BME280;5894;42.768;23.404;2022-07-23T12:37:31;95653.59;;;38.75;21.96
11676;BME280;5894;42.768;23.404;2022-07-23T12:40:03;95648.47;;;38.88;21.99
11676;BME280;5894;42.768;23.404;2022-07-23T12:42:45;95656.16;;;39.24;20.78
11676;BME280;5894;42.768;23.404;2022-07-23T12:45:12;95649.09;;;39.49;19.41
11676;BME280;5894;42.768;23.404;2022-07-23T12:48:00;95653.34;;;39.76;19.34
11676;BME280;5894;42.768;23.404;2022-07-23T12:50:37;95652.94;;;39.89;21.64
11676;BME280;5894;42.768;23.404;2022-07-23T12:53:08;95649.00;;;40.01;20.57
11676;BME280;5894;42.768;23.404;2022-07-23T12:55:35;95646.44;;;39.97;19.58
11676;BME280;5894;42.768;23.404;2022-07-23T12:58:13;95643.69;;;39.97;20.63
11676;BME280;5894;42.768;23.404;2022-07-23T13:00:59;95637.59;;;39.88;18.01
11676;BME280;5894;42.768;23.404;2022-07-23T13:03:32;95635.88;;;39.90;19.78
11676;BME280;5894;42.768;23.404;2022-07-23T13:06:00;95548.38;;;39.34;18.82
11676;BME280;5894;42.768;23.404;2022-07-23T13:08:31;95628.63;;;39.98;19.18
11676;BME280;5894;42.768;23.404;2022-07-23T13:10:59;95625.66;;;40.02;20.95
11676;BME280;5894;42.768;23.404;2022-07-23T13:13:27;95628.91;;;40.01;19.92
11676;BME280;5894;42.768;23.404;2022-07-23T13:15:54;95626.13;;;39.95;19.96
11676;BME280;5894;42.768;23.404;2022-07-23T13:18:21;95624.13;;;39.95;21.18
11676;BME280;5894;42.768;23.404;2022-07-23T13:20:49;95632.13;;;39.93;20.86
11676;BME280;5894;42.768;23.404;2022-07-23T13:23:16;95630.50;;;39.81;17.71